sensor_id;sensor_type;location;lat;lon;timestamp;temperature;humidity
69281;SHT31;56392;51.082;17.080;2023-12-22T00:00:00;6.16;74.90
69281;SHT31;56392;51.082;17.080;2023-12-22T00:05:47;6.15;74.29
69281;SHT31;56392;51.082;17.080;2023-12-22T00:11:11;6.16;74.16
69281;SHT31;56392;51.082;17.080;2023-12-22T00:16:37;6.13;73.77
69281;SHT31;56392;51.082;17.080;2023-12-22T00:22:03;5.89;73.53
69281;SHT31;56392;51.082;17.080;2023-12-22T00:27:27;5.68;74.07
69281;SHT31;56392;51.082;17.080;2023-12-22T00:32:52;5.65;73.91
69281;SHT31;56392;51.082;17.080;2023-12-22T00:38:20;5.57;76.60
69281;SHT31;56392;51.082;17.080;2023-12-22T00:43:44;5.16;79.19
69281;SHT31;56392;51.082;17.080;2023-12-22T00:49:12;5.16;79.08
69281;SHT31;56392;51.082;17.080;2023-12-22T00:54:37;5.27;77.38
69281;SHT31;56392;51.082;17.080;2023-12-22T01:00:01;5.19;77.00
69281;SHT31;56392;51.082;17.080;2023-12-22T01:05:27;5.05;76.59
69281;SHT31;56392;51.082;17.080;2023-12-22T01:10:53;5.17;76.51
69281;SHT31;56392;51.082;17.080;2023-12-22T01:16:18;5.27;76.01
69281;SHT31;56392;51.082;17.080;2023-12-22T01:21:44;5.27;75.07
69281;SHT31;56392;51.082;17.080;2023-12-22T01:27:09;5.29;74.76
69281;SHT31;56392;51.082;17.080;2023-12-22T01:32:34;5.30;73.64
69281;SHT31;56392;51.082;17.080;2023-12-22T01:37:59;5.13;73.05
69281;SHT31;56392;51.082;17.080;2023-12-22T01:43:25;4.93;73.22
69281;SHT31;56392;51.082;17.080;2023-12-22T01:48:49;4.79;73.27
69281;SHT31;56392;51.082;17.080;2023-12-22T01:54:13;4.75;72.41
69281;SHT31;56392;51.082;17.080;2023-12-22T01:59:41;4.69;71.80
69281;SHT31;56392;51.082;17.080;2023-12-22T02:05:06;4.69;71.97
69281;SHT31;56392;51.082;17.080;2023-12-22T02:10:31;4.61;72.40
69281;SHT31;56392;51.082;17.080;2023-12-22T02:16:03;4.55;72.59
69281;SHT31;56392;51.082;17.080;2023-12-22T02:21:28;4.69;72.37
69281;SHT31;56392;51.082;17.080;2023-12-22T02:26:55;4.54;77.86
69281;SHT31;56392;51.082;17.080;2023-12-22T02:32:27;4.21;79.56
69281;SHT31;56392;51.082;17.080;2023-12-22T02:37:53;4.18;77.69
69281;SHT31;56392;51.082;17.080;2023-12-22T02:43:20;4.18;77.60
69281;SHT31;56392;51.082;17.080;2023-12-22T02:48:44;4.10;76.39
69281;SHT31;56392;51.082;17.080;2023-12-22T02:54:09;3.96;76.38
69281;SHT31;56392;51.082;17.080;2023-12-22T02:59:36;3.83;75.52
69281;SHT31;56392;51.082;17.080;2023-12-22T03:05:01;3.80;75.08
69281;SHT31;56392;51.082;17.080;2023-12-22T03:10:25;3.90;73.19
69281;SHT31;56392;51.082;17.080;2023-12-22T03:15:51;3.85;71.10
69281;SHT31;56392;51.082;17.080;2023-12-22T03:21:19;3.79;70.97
69281;SHT31;56392;51.082;17.080;2023-12-22T03:26:43;3.69;72.16
69281;SHT31;56392;51.082;17.080;2023-12-22T03:32:09;3.54;74.77
69281;SHT31;56392;51.082;17.080;2023-12-22T03:37:33;3.36;77.06
69281;SHT31;56392;51.082;17.080;2023-12-22T03:42:57;3.19;78.20
69281;SHT31;56392;51.082;17.080;2023-12-22T03:48:23;3.08;78.87
69281;SHT31;56392;51.082;17.080;2023-12-22T03:53:47;3.11;79.08
69281;SHT31;56392;51.082;17.080;2023-12-22T03:59:11;3.14;78.73
69281;SHT31;56392;51.082;17.080;2023-12-22T04:04:39;3.28;78.06
69281;SHT31;56392;51.082;17.080;2023-12-22T04:10:05;3.46;77.39
69281;SHT31;56392;51.082;17.080;2023-12-22T04:15:30;3.59;76.36
69281;SHT31;56392;51.082;17.080;2023-12-22T04:20:57;3.67;75.76
69281;SHT31;56392;51.082;17.080;2023-12-22T04:26:23;3.79;74.95
69281;SHT31;56392;51.082;17.080;2023-12-22T04:31:47;3.80;74.10
69281;SHT31;56392;51.082;17.080;2023-12-22T04:37:13;3.72;73.06
69281;SHT31;56392;51.082;17.080;2023-12-22T04:42:38;3.70;72.87
69281;SHT31;56392;51.082;17.080;2023-12-22T04:48:04;3.59;72.32
69281;SHT31;56392;51.082;17.080;2023-12-22T04:53:30;3.60;71.97
69281;SHT31;56392;51.082;17.080;2023-12-22T04:58:55;3.56;72.35
69281;SHT31;56392;51.082;17.080;2023-12-22T05:04:20;3.54;72.09
69281;SHT31;56392;51.082;17.080;2023-12-22T05:09:45;3.63;71.17
69281;SHT31;56392;51.082;17.080;2023-12-22T05:15:10;3.60;71.33
69281;SHT31;56392;51.082;17.080;2023-12-22T05:20:34;3.60;71.41
69281;SHT31;56392;51.082;17.080;2023-12-22T05:26:00;3.56;71.77
69281;SHT31;56392;51.082;17.080;2023-12-22T05:31:25;3.54;72.08
69281;SHT31;56392;51.082;17.080;2023-12-22T05:36:50;3.52;72.53
69281;SHT31;56392;51.082;17.080;2023-12-22T05:42:16;3.49;72.76
69281;SHT31;56392;51.082;17.080;2023-12-22T05:47:40;3.49;73.15
69281;SHT31;56392;51.082;17.080;2023-12-22T05:53:05;3.48;73.21
69281;SHT31;56392;51.082;17.080;2023-12-22T05:58:31;3.52;72.93
69281;SHT31;56392;51.082;17.080;2023-12-22T06:03:56;3.52;73.02
69281;SHT31;56392;51.082;17.080;2023-12-22T06:09:20;3.49;73.49
69281;SHT31;56392;51.082;17.080;2023-12-22T06:14:46;3.49;73.93
69281;SHT31;56392;51.082;17.080;2023-12-22T06:20:10;3.40;74.29
69281;SHT31;56392;51.082;17.080;2023-12-22T06:25:34;3.39;75.16
69281;SHT31;56392;51.082;17.080;2023-12-22T06:30:59;3.42;75.07
69281;SHT31;56392;51.082;17.080;2023-12-22T06:36:30;3.38;75.78
69281;SHT31;56392;51.082;17.080;2023-12-22T06:41:54;3.36;76.09
69281;SHT31;56392;51.082;17.080;2023-12-22T06:47:19;3.36;76.47
69281;SHT31;56392;51.082;17.080;2023-12-22T06:52:43;3.38;76.77
69281;SHT31;56392;51.082;17.080;2023-12-22T06:58:07;3.34;77.60
69281;SHT31;56392;51.082;17.080;2023-12-22T07:03:32;3.38;77.90
69281;SHT31;56392;51.082;17.080;2023-12-22T07:08:57;3.38;77.76
69281;SHT31;56392;51.082;17.080;2023-12-22T07:14:43;3.40;77.55
69281;SHT31;56392;51.082;17.080;2023-12-22T07:20:09;3.52;77.16
69281;SHT31;56392;51.082;17.080;2023-12-22T07:25:36;3.70;76.85
69281;SHT31;56392;51.082;17.080;2023-12-22T07:31:01;3.94;76.11
69281;SHT31;56392;51.082;17.080;2023-12-22T07:36:26;4.30;75.67
69281;SHT31;56392;51.082;17.080;2023-12-22T07:41:50;4.51;75.24
69281;SHT31;56392;51.082;17.080;2023-12-22T07:47:13;4.40;76.00
69281;SHT31;56392;51.082;17.080;2023-12-22T07:52:38;4.37;76.50
69281;SHT31;56392;51.082;17.080;2023-12-22T07:58:02;4.61;76.62
69281;SHT31;56392;51.082;17.080;2023-12-22T08:03:26;4.78;75.88
69281;SHT31;56392;51.082;17.080;2023-12-22T08:08:51;4.66;75.63
69281;SHT31;56392;51.082;17.080;2023-12-22T08:14:17;4.76;74.69
69281;SHT31;56392;51.082;17.080;2023-12-22T08:19:41;4.76;74.32
69281;SHT31;56392;51.082;17.080;2023-12-22T08:25:07;4.76;74.55
69281;SHT31;56392;51.082;17.080;2023-12-22T08:30:31;4.59;73.97
69281;SHT31;56392;51.082;17.080;2023-12-22T08:35:56;4.49;74.01
69281;SHT31;56392;51.082;17.080;2023-12-22T08:41:21;5.00;71.89
69281;SHT31;56392;51.082;17.080;2023-12-22T08:46:45;5.06;71.02
69281;SHT31;56392;51.082;17.080;2023-12-22T08:52:08;4.88;71.27
69281;SHT31;56392;51.082;17.080;2023-12-22T08:57:33;4.78;71.61
69281;SHT31;56392;51.082;17.080;2023-12-22T09:02:56;4.69;71.76
69281;SHT31;56392;51.082;17.080;2023-12-22T09:08:20;4.59;73.30
69281;SHT31;56392;51.082;17.080;2023-12-22T09:13:45;4.24;75.22
69281;SHT31;56392;51.082;17.080;2023-12-22T09:19:08;4.00;75.01
69281;SHT31;56392;51.082;17.080;2023-12-22T09:24:31;4.30;74.35
69281;SHT31;56392;51.082;17.080;2023-12-22T09:29:56;4.48;74.33
69281;SHT31;56392;51.082;17.080;2023-12-22T09:35:20;4.92;73.10
69281;SHT31;56392;51.082;17.080;2023-12-22T09:40:43;5.03;72.94
69281;SHT31;56392;51.082;17.080;2023-12-22T09:46:10;5.24;73.00
69281;SHT31;56392;51.082;17.080;2023-12-22T09:51:37;6.09;71.18
69281;SHT31;56392;51.082;17.080;2023-12-22T09:57:02;6.63;70.24
69281;SHT31;56392;51.082;17.080;2023-12-22T10:02:29;6.33;69.88
69281;SHT31;56392;51.082;17.080;2023-12-22T10:07:55;6.05;70.53
69281;SHT31;56392;51.082;17.080;2023-12-22T10:13:21;6.05;70.14
69281;SHT31;56392;51.082;17.080;2023-12-22T10:18:47;5.95;69.94
69281;SHT31;56392;51.082;17.080;2023-12-22T10:30:10;6.40;67.07
69281;SHT31;56392;51.082;17.080;2023-12-22T10:35:36;6.54;65.73
69281;SHT31;56392;51.082;17.080;2023-12-22T10:41:00;6.23;66.37
69281;SHT31;56392;51.082;17.080;2023-12-22T10:46:25;6.54;64.34
69281;SHT31;56392;51.082;17.080;2023-12-22T10:51:58;6.79;62.12
69281;SHT31;56392;51.082;17.080;2023-12-22T10:57:23;6.87;62.70
69281;SHT31;56392;51.082;17.080;2023-12-22T11:02:48;6.47;63.64
69281;SHT31;56392;51.082;17.080;2023-12-22T11:08:14;6.10;63.52
69281;SHT31;56392;51.082;17.080;2023-12-22T11:13:40;5.71;64.52
69281;SHT31;56392;51.082;17.080;2023-12-22T11:19:04;5.60;64.85
69281;SHT31;56392;51.082;17.080;2023-12-22T11:24:31;5.72;65.75
69281;SHT31;56392;51.082;17.080;2023-12-22T11:29:55;6.05;65.82
69281;SHT31;56392;51.082;17.080;2023-12-22T11:35:21;5.78;66.41
69281;SHT31;56392;51.082;17.080;2023-12-22T11:40:47;5.92;64.89
69281;SHT31;56392;51.082;17.080;2023-12-22T11:46:12;6.19;63.59
69281;SHT31;56392;51.082;17.080;2023-12-22T11:51:37;6.08;63.37
69281;SHT31;56392;51.082;17.080;2023-12-22T11:57:04;6.28;61.32
69281;SHT31;56392;51.082;17.080;2023-12-22T12:02:29;6.74;60.75
69281;SHT31;56392;51.082;17.080;2023-12-22T12:08:06;6.51;60.11
69281;SHT31;56392;51.082;17.080;2023-12-22T12:13:33;6.13;59.31
69281;SHT31;56392;51.082;17.080;2023-12-22T12:18:58;6.10;59.97
69281;SHT31;56392;51.082;17.080;2023-12-22T12:24:22;6.29;59.50
69281;SHT31;56392;51.082;17.080;2023-12-22T12:29:47;6.29;59.43
69281;SHT31;56392;51.082;17.080;2023-12-22T12:35:11;6.29;59.42
69281;SHT31;56392;51.082;17.080;2023-12-22T12:40:37;6.15;58.85
69281;SHT31;56392;51.082;17.080;2023-12-22T12:46:07;6.12;58.47
69281;SHT31;56392;51.082;17.080;2023-12-22T12:51:35;6.06;59.09
69281;SHT31;56392;51.082;17.080;2023-12-22T12:57:01;5.94;59.36
69281;SHT31;56392;51.082;17.080;2023-12-22T13:02:26;6.06;59.38
69281;SHT31;56392;51.082;17.080;2023-12-22T13:07:50;5.92;59.35
69281;SHT31;56392;51.082;17.080;2023-12-22T13:13:15;5.95;60.10
69281;SHT31;56392;51.082;17.080;2023-12-22T13:18:40;5.92;59.14
69281;SHT31;56392;51.082;17.080;2023-12-22T13:24:12;5.79;59.27
69281;SHT31;56392;51.082;17.080;2023-12-22T13:29:42;5.82;59.57
69281;SHT31;56392;51.082;17.080;2023-12-22T13:35:10;5.85;59.64
69281;SHT31;56392;51.082;17.080;2023-12-22T13:40:37;5.57;60.00
69281;SHT31;56392;51.082;17.080;2023-12-22T13:46:01;5.54;60.60
69281;SHT31;56392;51.082;17.080;2023-12-22T13:51:27;5.33;61.63
69281;SHT31;56392;51.082;17.080;2023-12-22T13:56:50;5.30;62.14
69281;SHT31;56392;51.082;17.080;2023-12-22T14:02:14;5.23;62.09
69281;SHT31;56392;51.082;17.080;2023-12-22T14:07:43;5.00;62.39
69281;SHT31;56392;51.082;17.080;2023-12-22T14:13:07;5.01;62.47
69281;SHT31;56392;51.082;17.080;2023-12-22T14:18:31;4.82;63.12
69281;SHT31;56392;51.082;17.080;2023-12-22T14:23:56;4.85;62.34
69281;SHT31;56392;51.082;17.080;2023-12-22T14:29:20;4.88;62.39
69281;SHT31;56392;51.082;17.080;2023-12-22T14:34:44;4.86;62.28
69281;SHT31;56392;51.082;17.080;2023-12-22T14:40:09;4.82;62.10
69281;SHT31;56392;51.082;17.080;2023-12-22T14:45:32;4.75;62.15
69281;SHT31;56392;51.082;17.080;2023-12-22T14:50:56;4.66;62.38
69281;SHT31;56392;51.082;17.080;2023-12-22T14:56:22;4.62;62.72
69281;SHT31;56392;51.082;17.080;2023-12-22T15:01:46;4.51;63.36
69281;SHT31;56392;51.082;17.080;2023-12-22T15:07:14;4.38;63.98
69281;SHT31;56392;51.082;17.080;2023-12-22T15:12:39;4.25;64.33
69281;SHT31;56392;51.082;17.080;2023-12-22T15:18:04;4.18;64.75
69281;SHT31;56392;51.082;17.080;2023-12-22T15:23:28;4.16;64.60
69281;SHT31;56392;51.082;17.080;2023-12-22T15:28:56;4.10;65.15
69281;SHT31;56392;51.082;17.080;2023-12-22T15:34:19;4.01;65.22
69281;SHT31;56392;51.082;17.080;2023-12-22T15:39:42;3.98;65.83
69281;SHT31;56392;51.082;17.080;2023-12-22T15:45:10;3.91;66.87
69281;SHT31;56392;51.082;17.080;2023-12-22T15:50:34;3.72;68.39
69281;SHT31;56392;51.082;17.080;2023-12-22T15:55:57;3.58;69.19
69281;SHT31;56392;51.082;17.080;2023-12-22T16:01:22;3.58;69.87
69281;SHT31;56392;51.082;17.080;2023-12-22T16:06:45;3.69;69.66
69281;SHT31;56392;51.082;17.080;2023-12-22T16:12:11;3.83;69.25
69281;SHT31;56392;51.082;17.080;2023-12-22T16:17:38;3.91;68.86
69281;SHT31;56392;51.082;17.080;2023-12-22T16:23:02;3.91;68.97
69281;SHT31;56392;51.082;17.080;2023-12-22T16:28:27;3.79;69.34
69281;SHT31;56392;51.082;17.080;2023-12-22T16:33:54;3.73;69.90
69281;SHT31;56392;51.082;17.080;2023-12-22T16:39:18;3.59;70.79
69281;SHT31;56392;51.082;17.080;2023-12-22T16:44:43;3.51;71.20
69281;SHT31;56392;51.082;17.080;2023-12-22T16:50:08;3.38;71.48
69281;SHT31;56392;51.082;17.080;2023-12-22T16:55:33;3.34;71.50
69281;SHT31;56392;51.082;17.080;2023-12-22T17:00:57;3.25;72.51
69281;SHT31;56392;51.082;17.080;2023-12-22T17:06:21;3.07;73.64
69281;SHT31;56392;51.082;17.080;2023-12-22T17:11:45;3.00;74.49
69281;SHT31;56392;51.082;17.080;2023-12-22T17:17:10;2.88;74.90
69281;SHT31;56392;51.082;17.080;2023-12-22T17:22:35;2.81;75.19
69281;SHT31;56392;51.082;17.080;2023-12-22T17:27:58;2.76;75.57
69281;SHT31;56392;51.082;17.080;2023-12-22T17:33:21;2.70;76.14
69281;SHT31;56392;51.082;17.080;2023-12-22T17:38:46;2.70;76.42
69281;SHT31;56392;51.082;17.080;2023-12-22T17:44:10;2.72;76.51
69281;SHT31;56392;51.082;17.080;2023-12-22T17:49:35;2.76;76.02
69281;SHT31;56392;51.082;17.080;2023-12-22T17:55:00;2.84;75.11
69281;SHT31;56392;51.082;17.080;2023-12-22T18:00:24;2.74;74.07
69281;SHT31;56392;51.082;17.080;2023-12-22T18:05:47;2.70;73.11
69281;SHT31;56392;51.082;17.080;2023-12-22T18:11:12;2.70;71.79
69281;SHT31;56392;51.082;17.080;2023-12-22T18:16:37;2.72;71.41
69281;SHT31;56392;51.082;17.080;2023-12-22T18:22:00;2.64;71.33
69281;SHT31;56392;51.082;17.080;2023-12-22T18:27:29;2.61;71.25
69281;SHT31;56392;51.082;17.080;2023-12-22T18:32:53;2.72;71.03
69281;SHT31;56392;51.082;17.080;2023-12-22T18:38:18;2.91;70.52
69281;SHT31;56392;51.082;17.080;2023-12-22T18:43:43;2.98;70.74
69281;SHT31;56392;51.082;17.080;2023-12-22T18:49:07;3.00;70.97
69281;SHT31;56392;51.082;17.080;2023-12-22T18:54:35;3.14;71.15
69281;SHT31;56392;51.082;17.080;2023-12-22T19:00:03;3.19;71.32
69281;SHT31;56392;51.082;17.080;2023-12-22T19:05:30;3.26;71.55
69281;SHT31;56392;51.082;17.080;2023-12-22T19:10:55;3.32;71.74
69281;SHT31;56392;51.082;17.080;2023-12-22T19:16:20;3.26;72.03
69281;SHT31;56392;51.082;17.080;2023-12-22T19:21:44;3.21;72.57
69281;SHT31;56392;51.082;17.080;2023-12-22T19:27:07;3.22;72.75
69281;SHT31;56392;51.082;17.080;2023-12-22T19:32:34;3.15;72.83
69281;SHT31;56392;51.082;17.080;2023-12-22T19:37:58;3.08;73.14
69281;SHT31;56392;51.082;17.080;2023-12-22T19:43:22;3.07;73.28
69281;SHT31;56392;51.082;17.080;2023-12-22T19:48:46;3.05;73.42
69281;SHT31;56392;51.082;17.080;2023-12-22T19:54:10;3.00;73.89
69281;SHT31;56392;51.082;17.080;2023-12-22T19:59:34;2.88;74.25
69281;SHT31;56392;51.082;17.080;2023-12-22T20:04:59;2.77;74.73
69281;SHT31;56392;51.082;17.080;2023-12-22T20:10:23;2.77;75.11
69281;SHT31;56392;51.082;17.080;2023-12-22T20:15:46;2.81;75.10
69281;SHT31;56392;51.082;17.080;2023-12-22T20:21:12;2.93;74.81
69281;SHT31;56392;51.082;17.080;2023-12-22T20:26:35;3.01;74.27
69281;SHT31;56392;51.082;17.080;2023-12-22T20:32:00;3.03;74.01
69281;SHT31;56392;51.082;17.080;2023-12-22T20:37:25;2.94;73.99
69281;SHT31;56392;51.082;17.080;2023-12-22T20:42:48;3.04;73.67
69281;SHT31;56392;51.082;17.080;2023-12-22T20:48:12;3.16;73.08
69281;SHT31;56392;51.082;17.080;2023-12-22T20:53:36;3.19;72.80
69281;SHT31;56392;51.082;17.080;2023-12-22T20:59:00;3.24;72.57
69281;SHT31;56392;51.082;17.080;2023-12-22T21:04:24;3.25;72.56
69281;SHT31;56392;51.082;17.080;2023-12-22T21:09:48;3.28;71.95
69281;SHT31;56392;51.082;17.080;2023-12-22T21:15:12;3.25;72.16
69281;SHT31;56392;51.082;17.080;2023-12-22T21:20:36;3.22;71.34
69281;SHT31;56392;51.082;17.080;2023-12-22T21:26:03;3.25;71.60
69281;SHT31;56392;51.082;17.080;2023-12-22T21:31:27;3.18;71.42
69281;SHT31;56392;51.082;17.080;2023-12-22T21:36:52;3.11;71.42
69281;SHT31;56392;51.082;17.080;2023-12-22T21:42:16;3.11;71.20
69281;SHT31;56392;51.082;17.080;2023-12-22T21:47:40;3.16;70.97
69281;SHT31;56392;51.082;17.080;2023-12-22T21:53:03;3.24;71.10
69281;SHT31;56392;51.082;17.080;2023-12-22T21:58:28;3.26;70.54
69281;SHT31;56392;51.082;17.080;2023-12-22T22:03:51;3.24;69.93
69281;SHT31;56392;51.082;17.080;2023-12-22T22:09:14;3.19;69.60
69281;SHT31;56392;51.082;17.080;2023-12-22T22:14:39;3.21;69.73
69281;SHT31;56392;51.082;17.080;2023-12-22T22:20:03;3.21;69.59
69281;SHT31;56392;51.082;17.080;2023-12-22T22:25:30;3.15;70.01
69281;SHT31;56392;51.082;17.080;2023-12-22T22:30:55;3.18;70.03
69281;SHT31;56392;51.082;17.080;2023-12-22T22:36:18;3.19;69.22
69281;SHT31;56392;51.082;17.080;2023-12-22T22:41:41;3.18;68.90
69281;SHT31;56392;51.082;17.080;2023-12-22T22:47:06;3.09;69.33
69281;SHT31;56392;51.082;17.080;2023-12-22T22:52:29;3.00;69.24
69281;SHT31;56392;51.082;17.080;2023-12-22T22:57:52;2.88;69.92
69281;SHT31;56392;51.082;17.080;2023-12-22T23:03:17;2.83;71.02
69281;SHT31;56392;51.082;17.080;2023-12-22T23:08:40;2.90;71.32
69281;SHT31;56392;51.082;17.080;2023-12-22T23:14:04;2.90;71.76
69281;SHT31;56392;51.082;17.080;2023-12-22T23:19:28;2.98;72.18
69281;SHT31;56392;51.082;17.080;2023-12-22T23:24:52;3.03;72.25
69281;SHT31;56392;51.082;17.080;2023-12-22T23:30:15;2.95;72.80
69281;SHT31;56392;51.082;17.080;2023-12-22T23:35:39;3.00;73.18
69281;SHT31;56392;51.082;17.080;2023-12-22T23:41:03;3.08;73.17
69281;SHT31;56392;51.082;17.080;2023-12-22T23:46:26;3.15;73.39
69281;SHT31;56392;51.082;17.080;2023-12-22T23:51:51;3.22;73.23
69281;SHT31;56392;51.082;17.080;2023-12-22T23:57:15;3.29;73.54
